createdAt,value
2024-02-08T00:00:01.601Z,8.77
2024-02-08T00:04:18.855Z,9.17
2024-02-08T00:08:36.487Z,9.37
2024-02-08T00:12:53.710Z,9.17
2024-02-08T00:17:11.111Z,9.23
2024-02-08T00:21:29.099Z,8.13
2024-02-08T00:25:51.622Z,7.50
2024-02-08T00:30:09.267Z,7.65
2024-02-08T00:34:27.077Z,8.00
2024-02-08T00:38:44.374Z,7.60
2024-02-08T00:43:07.956Z,8.17
2024-02-08T00:47:25.981Z,8.30
2024-02-08T00:51:43.230Z,8.07
2024-02-08T00:56:01.189Z,8.52
2024-02-08T01:00:19.264Z,8.13
2024-02-08T01:04:39.270Z,8.80
2024-02-08T01:08:57.608Z,8.23
2024-02-08T01:13:16.474Z,9.32
2024-02-08T01:17:33.822Z,7.80
2024-02-08T01:21:52.548Z,6.43
2024-02-08T01:26:10.214Z,6.72
2024-02-08T01:30:27.870Z,5.95
2024-02-08T01:34:48.440Z,6.13
2024-02-08T01:39:08.208Z,6.93
2024-02-08T01:43:26.340Z,7.43
2024-02-08T01:47:48.945Z,6.88
2024-02-08T01:52:07.109Z,6.72
2024-02-08T01:56:24.454Z,6.50
2024-02-08T02:00:41.934Z,6.68
2024-02-08T02:05:00.736Z,7.78
2024-02-08T02:09:25.901Z,8.33
2024-02-08T02:13:43.620Z,9.60
2024-02-08T02:18:05.065Z,10.10
2024-02-08T02:22:23.107Z,9.30
2024-02-08T02:26:41.573Z,9.50
2024-02-08T02:30:59.362Z,10.53
2024-02-08T02:35:18.572Z,9.30
2024-02-08T02:39:37.993Z,10.73
2024-02-08T02:43:55.318Z,9.63
2024-02-08T02:48:12.798Z,11.32
2024-02-08T02:52:30.709Z,11.60
2024-02-08T02:56:48.700Z,11.68
2024-02-08T03:01:06.242Z,10.80
2024-02-08T03:05:25.208Z,14.43
2024-02-08T03:13:59.782Z,10.82
2024-02-08T03:18:17.122Z,11.25
2024-02-08T03:22:35.490Z,11.27
2024-02-08T03:31:10.512Z,10.57
2024-02-08T03:35:33.691Z,10.40
2024-02-08T03:39:52.012Z,10.80
2024-02-08T03:48:30.724Z,11.95
2024-02-08T03:52:47.970Z,12.20
2024-02-08T03:57:07.308Z,12.47
2024-02-08T04:01:25.409Z,12.35
2024-02-08T04:05:51.918Z,12.03
2024-02-08T04:10:21.160Z,11.95
2024-02-08T04:15:00.443Z,11.63
2024-02-08T04:19:36.387Z,12.13
2024-02-08T04:24:12.829Z,13.02
2024-02-08T04:28:48.785Z,15.48
2024-02-08T04:33:24.984Z,15.48
2024-02-08T04:38:01.075Z,14.75
2024-02-08T04:42:37.372Z,13.38
2024-02-08T04:47:13.453Z,13.20
2024-02-08T04:51:49.563Z,15.98
2024-02-08T04:56:10.392Z,17.13
2024-02-08T05:00:29.495Z,15.07
2024-02-08T05:04:50.219Z,15.07
2024-02-08T05:09:07.688Z,15.45
2024-02-08T05:13:26.942Z,17.00
2024-02-08T05:17:44.417Z,15.70
2024-02-08T05:22:03.689Z,17.43
2024-02-08T05:26:22.767Z,16.58
2024-02-08T05:30:40.316Z,15.85
2024-02-08T05:34:59.283Z,17.70
2024-02-08T05:39:27.619Z,19.35
2024-02-08T05:43:46.340Z,19.40
2024-02-08T05:48:07.560Z,20.77
2024-02-08T05:52:31.987Z,25.85
2024-02-08T05:56:52.521Z,21.70
2024-02-08T06:01:18.136Z,20.95
2024-02-08T06:05:35.560Z,20.63
2024-02-08T06:10:09.167Z,21.50
2024-02-08T06:14:26.692Z,21.38
2024-02-08T06:18:46.617Z,22.38
2024-02-08T06:23:24.404Z,21.48
2024-02-08T06:27:42.929Z,22.38
2024-02-08T06:36:59.514Z,25.08
2024-02-08T06:41:25.140Z,28.70
2024-02-08T06:45:45.367Z,31.58
2024-02-08T06:50:21.416Z,25.27
2024-02-08T06:54:57.520Z,24.58
2024-02-08T06:59:33.724Z,29.00
2024-02-08T07:04:10.246Z,30.45
2024-02-08T07:08:46.267Z,28.63
2024-02-08T07:13:22.417Z,31.15
2024-02-08T07:17:58.707Z,30.90
2024-02-08T07:22:54.506Z,31.55
2024-02-08T07:27:30.350Z,31.95
2024-02-08T07:32:06.668Z,27.60
2024-02-08T07:36:42.944Z,26.35
2024-02-08T07:41:00.134Z,27.23
2024-02-08T07:45:17.431Z,25.35
2024-02-08T07:49:44.288Z,31.60
2024-02-08T07:54:11.430Z,31.65
2024-02-08T07:58:28.759Z,27.55
2024-02-08T08:02:48.948Z,25.35
2024-02-08T08:07:14.603Z,23.10
2024-02-08T08:11:32.406Z,21.35
2024-02-08T08:16:10.295Z,22.60
2024-02-08T08:20:46.705Z,21.67
2024-02-08T08:25:13.316Z,22.52
2024-02-08T08:29:43.622Z,19.27
2024-02-08T08:34:02.094Z,19.38
2024-02-08T08:38:19.843Z,18.15
2024-02-08T08:42:37.110Z,18.08
2024-02-08T08:46:54.420Z,18.52
2024-02-08T08:51:14.917Z,18.83
2024-02-08T08:55:32.293Z,22.85
2024-02-08T08:59:50.437Z,24.45
2024-02-08T09:04:11.699Z,21.92
2024-02-08T09:08:43.588Z,22.05
2024-02-08T09:13:08.556Z,23.70
2024-02-08T09:17:45.113Z,21.05
2024-02-08T09:22:04.493Z,22.90
2024-02-08T09:26:34.416Z,22.80
2024-02-08T09:30:54.873Z,21.70
2024-02-08T09:35:13.732Z,18.95
2024-02-08T09:39:51.765Z,22.35
2024-02-08T09:44:13.061Z,25.13
2024-02-08T09:48:41.284Z,20.35
2024-02-08T09:53:08.659Z,23.45
2024-02-08T09:57:32.813Z,21.75
2024-02-08T10:01:52.030Z,20.45
2024-02-08T10:06:25.079Z,21.35
2024-02-08T10:11:00.109Z,21.98
2024-02-08T10:15:27.152Z,22.75
2024-02-08T10:20:22.174Z,22.52
2024-02-08T10:25:08.414Z,21.63
2024-02-08T10:29:26.715Z,22.52
2024-02-08T10:33:49.938Z,22.67
2024-02-08T10:38:26.435Z,22.98
2024-02-08T10:42:43.949Z,22.25
2024-02-08T10:47:08.884Z,23.55
2024-02-08T10:51:28.968Z,23.67
2024-02-08T10:56:00.299Z,23.67
2024-02-08T11:00:39.902Z,25.58
2024-02-08T11:05:14.516Z,24.75
2024-02-08T11:09:32.019Z,26.80
2024-02-08T11:13:54.477Z,28.17
2024-02-08T11:18:34.295Z,23.70
2024-02-08T11:22:58.963Z,25.13
2024-02-08T11:27:28.987Z,22.15
2024-02-08T11:31:47.839Z,20.85
2024-02-08T11:36:14.224Z,22.42
2024-02-08T11:40:37.515Z,25.98
2024-02-08T11:45:01.641Z,25.50
2024-02-08T11:49:33.608Z,26.48
2024-02-08T11:54:03.203Z,26.65
2024-02-08T11:58:22.558Z,24.25
2024-02-08T12:02:40.381Z,22.95
2024-02-08T12:07:05.870Z,24.08
2024-02-08T12:11:25.639Z,20.88
2024-02-08T12:16:02.197Z,22.90
2024-02-08T12:20:20.296Z,22.50
2024-02-08T12:24:37.419Z,19.00
2024-02-08T12:28:58.893Z,19.88
2024-02-08T12:33:16.363Z,16.83
2024-02-08T12:37:33.699Z,20.55
2024-02-08T12:41:54.097Z,17.42
2024-02-08T12:46:15.961Z,20.55
2024-02-08T12:50:36.253Z,20.27
2024-02-08T12:54:57.275Z,25.30
2024-02-08T12:59:19.487Z,22.13
2024-02-08T13:03:38.133Z,17.10
2024-02-08T13:07:59.875Z,16.33
2024-02-08T13:12:18.814Z,13.07
2024-02-08T13:16:36.338Z,14.50
2024-02-08T13:20:53.551Z,17.35
2024-02-08T13:25:15.203Z,15.05
2024-02-08T13:29:34.058Z,16.50
2024-02-08T13:33:53.845Z,18.02
2024-02-08T13:38:12.274Z,17.45
2024-02-08T13:42:42.962Z,16.80
2024-02-08T13:47:14.634Z,18.10
2024-02-08T13:51:35.597Z,27.75
2024-02-08T13:55:56.766Z,22.92
2024-02-08T14:00:21.801Z,25.42
2024-02-08T14:04:40.265Z,21.95
2024-02-08T14:09:17.404Z,25.50
2024-02-08T14:13:36.601Z,22.75
2024-02-08T14:17:58.506Z,22.45
2024-02-08T14:22:17.956Z,21.27
2024-02-08T14:26:39.241Z,19.75
2024-02-08T14:30:57.136Z,22.60
2024-02-08T14:35:17.803Z,23.70
2024-02-08T14:39:36.710Z,20.77
2024-02-08T14:44:07.830Z,21.48
2024-02-08T14:48:28.376Z,27.02
2024-02-08T14:52:50.842Z,20.58
2024-02-08T14:57:11.523Z,25.38
2024-02-08T15:01:39.657Z,21.73
2024-02-08T15:06:06.886Z,21.92
2024-02-08T15:10:44.231Z,23.02
2024-02-08T15:15:06.142Z,20.05
2024-02-08T15:19:27.479Z,21.02
2024-02-08T15:24:11.153Z,19.20
2024-02-08T15:28:33.350Z,19.88
2024-02-08T15:33:00.082Z,19.65
2024-02-08T15:37:40.308Z,18.13
2024-02-08T15:42:02.795Z,25.05
2024-02-08T15:46:21.513Z,23.05
2024-02-08T15:50:45.435Z,22.77
2024-02-08T15:55:16.263Z,27.98
2024-02-08T15:59:36.095Z,26.00
2024-02-08T16:04:27.575Z,21.63
2024-02-08T16:08:47.950Z,24.27
2024-02-08T16:13:08.305Z,24.35
2024-02-08T16:17:40.086Z,22.95
2024-02-08T16:22:17.438Z,28.58
2024-02-08T16:26:36.259Z,25.02
2024-02-08T16:31:00.531Z,25.88
2024-02-08T16:35:34.508Z,21.30
2024-02-08T16:40:09.134Z,20.15
2024-02-08T16:45:08.593Z,24.38
2024-02-08T16:49:29.242Z,23.63
2024-02-08T16:54:02.557Z,26.35
2024-02-08T16:58:30.107Z,25.02
2024-02-08T17:03:08.759Z,40.40
2024-02-08T17:07:38.619Z,27.73
2024-02-08T17:12:06.086Z,29.27
2024-02-08T17:16:36.391Z,23.30
2024-02-08T17:20:54.721Z,28.10
2024-02-08T17:25:15.283Z,25.38
2024-02-08T17:29:46.059Z,20.08
2024-02-08T17:34:10.716Z,19.70
2024-02-08T17:38:30.318Z,20.92
2024-02-08T17:42:47.832Z,24.95
2024-02-08T17:47:09.473Z,22.58
2024-02-08T17:51:33.187Z,29.58
2024-02-08T17:56:09.661Z,21.80
2024-02-08T18:00:26.965Z,24.50
2024-02-08T18:04:44.173Z,27.25
2024-02-08T18:09:04.848Z,29.85
2024-02-08T18:13:27.606Z,30.17
2024-02-08T18:17:48.235Z,23.67
2024-02-08T18:22:05.679Z,27.23
2024-02-08T18:26:30.967Z,21.80
2024-02-08T18:30:57.262Z,23.65
2024-02-08T18:35:18.127Z,27.13
2024-02-08T18:39:39.528Z,31.73
2024-02-08T18:43:59.257Z,41.72
2024-02-08T18:48:21.807Z,32.78
2024-02-08T18:52:39.520Z,30.42
2024-02-08T18:57:04.511Z,26.87
2024-02-08T19:01:22.552Z,30.67
2024-02-08T19:05:42.358Z,39.33
2024-02-08T19:10:02.959Z,35.78
2024-02-08T19:14:23.118Z,42.47
2024-02-08T19:18:47.335Z,53.30
2024-02-08T19:23:06.619Z,41.78
2024-02-08T19:27:23.964Z,33.78
2024-02-08T19:31:42.546Z,40.03
2024-02-08T19:36:01.202Z,36.25
2024-02-08T19:40:22.669Z,29.52
2024-02-08T19:44:43.710Z,28.55
2024-02-08T19:49:02.759Z,32.30
2024-02-08T19:53:29.690Z,33.03
2024-02-08T19:57:50.155Z,40.85
2024-02-08T20:02:08.418Z,34.28
2024-02-08T20:06:28.228Z,33.20
2024-02-08T20:10:47.779Z,40.65
2024-02-08T20:15:17.672Z,36.20
2024-02-08T20:19:35.226Z,34.85
2024-02-08T20:23:52.675Z,46.92
2024-02-08T20:28:10.111Z,37.22
2024-02-08T20:32:29.837Z,40.30
2024-02-08T20:36:51.748Z,34.28
2024-02-08T20:41:11.892Z,34.88
2024-02-08T20:45:29.220Z,35.13
2024-02-08T20:49:46.831Z,39.22
2024-02-08T20:54:06.378Z,40.30
2024-02-08T20:58:23.781Z,44.40
2024-02-08T21:02:42.065Z,40.22
2024-02-08T21:07:00.036Z,40.00
2024-02-08T21:11:19.218Z,35.05
2024-02-08T21:15:37.299Z,37.50
2024-02-08T21:19:54.723Z,39.95
2024-02-08T21:24:12.133Z,44.95
2024-02-08T21:28:30.743Z,46.67
2024-02-08T21:32:49.855Z,43.33
2024-02-08T21:37:08.347Z,46.60
2024-02-08T21:41:26.164Z,48.42
2024-02-08T21:45:45.492Z,47.13
2024-02-08T21:50:08.253Z,44.88
2024-02-08T21:54:27.658Z,44.58
2024-02-08T21:58:45.179Z,50.83
2024-02-08T22:03:03.756Z,52.37
2024-02-08T22:07:21.881Z,45.95
2024-02-08T22:11:47.808Z,44.15
2024-02-08T22:16:09.414Z,44.20
2024-02-08T22:20:26.927Z,47.03
2024-02-08T22:24:44.353Z,40.15
2024-02-08T22:29:02.831Z,38.45
2024-02-08T22:37:39.597Z,31.45
2024-02-08T22:41:58.635Z,32.30
2024-02-08T22:46:16.074Z,19.13
2024-02-08T22:50:34.971Z,14.90
2024-02-08T22:54:53.403Z,14.45
2024-02-08T22:59:13.014Z,12.95
2024-02-08T23:03:30.334Z,10.50
2024-02-08T23:07:48.664Z,12.13
2024-02-08T23:12:14.140Z,9.40
2024-02-08T23:16:35.294Z,8.45
2024-02-08T23:20:54.925Z,7.00
2024-02-08T23:25:12.462Z,7.18
2024-02-08T23:29:29.930Z,5.53
2024-02-08T23:33:48.939Z,5.03
2024-02-08T23:38:06.787Z,4.60
2024-02-08T23:42:24.448Z,4.35
2024-02-08T23:46:43.385Z,4.40
2024-02-08T23:51:01.016Z,5.07
2024-02-08T23:55:23.064Z,4.60
2024-02-08T23:59:40.769Z,3.60
